Airfield :
LOGIN :

Register | Disclaimer

   EN    FR    IT 

 










Legend :    VFR   Marginal VFR   IFR   Intensive IFR   Very Intensive IFR
Visi :
Ceiling :
>= 8 km
>= 3000ft
5 to 8 km
1000 to 3000 ft
1500m to 5 km
500 to 1000 ft
800 to 1500m
200 to 500 ft
< 800m
< 200 ft
Symbols :   Thunderstorms  Fog  Heavy snow  Heavy precipitations  Wind > 20 kt
SIGMETs :     Misc.  Thunderstorms  Icing  Turbulence  Mountain Waves  Volcanic Ashes






- Airport Elevation : 140 ft
- IATA code : NYO


ESKN - Skavsta

CURRENT METAR :
  • 210520Z 12011KT 2500 DZ BR OVC003 07/07 Q1024 R26/290195

EXPIRED METARs :
  • 210450Z 11012KT 2100 BR OVC003 07/07 Q1024 R26/290195
  • 210420Z 11013KT 4500 BR BKN004 06/06 Q1024 R26/290195
  • 210350Z 11011KT 7000 BKN004 06/06 Q1024 R26/290195
  • 210320Z 11012KT 2600 BR BKN003 06/06 Q1024 R26/290195
  • 210250Z 11012KT 2200 -DZ BR BKN004 06/06 Q1025 R26/290195

TAF TAF ESKN
Valid from the 21 at 06:00 until the 22 at 06:00 UTC


210530Z 2106/2206 12012KT 7000 BKN012
TEMPO 2106/2109 2500 BR BKN003
TEMPO 2109/2206 BKN015



MET'MAP, your aeronautical weather chart ! - Copyright ORBIFLY December 2007 - Disclaimer

ORBIFLY MET'MAP TEAM :

Programming & Development : Alexandra Zaïnal
Concept & Development : Baudouin d'Aumeries
Co-Development & Prog : Marc-Olivier Méhu
Technical & hardware support : Manuel Goepfert

Contact : metmap@orbifly.com




SOURCES & CREDITS :

   NOAA